Repubbli Del Brasile — IBZB — position and weather

sailwx.info

Track history (hours):
 
Tides and Currents Weather Stations Pressure Air Temp Water Temp Dewpoint Dewpoint Depression Visibility Wind Speed Wind Dir Waves Ship Positions

Repubbli Del Brasile

Last reported at 2014-Dec-19 00:11 UTC. Time now 2014-Dec-22 18:29 UTC.
Position N 09°51' W 016°37'.

Length 209 m; draft 7.9 m.

Type: Cargo ship. MMSI: 247310000.

Date/timePositionNaut miles runAvg speedWind from/ knotsBaromVisibWave heightAir tempDewpointWater temp
2014-Dec-19 00:11N 09°51' W 016°37'2814.6
2014-Dec-18 22:16N 09°32' W 016°16'1414.9
2014-Dec-18 21:20N 09°22' W 016°06'1214.9
2014-Dec-18 20:33N 09°15' W 015°57'3014.9
2014-Dec-18 18:31N 08°54' W 015°34'4615.4
2014-Dec-18 15:33N 08°23' W 015°01'1715.3
2014-Dec-18 14:27N 08°12' W 014°48'1415.2
2014-Dec-18 13:33N 08°02' W 014°38'1515.1
2014-Dec-18 12:33N 07°52' W 014°27'  
2014-Dec-11 18:33N 06°12' E 003°22'1111.6
2014-Dec-11 17:34N 06°24' E 003°24'4 4.4
2014-Dec-11 16:33N 06°26' E 003°20'1 0.3
2014-Dec-11 14:32N 06°26' E 003°20'0 0.0
2014-Dec-11 13:31N 06°26' E 003°20'0 0.0
2014-Dec-11 12:31N 06°26' E 003°20'0 0.0
2014-Dec-11 11:31N 06°26' E 003°20'0 0.0
2014-Dec-11 09:27N 06°26' E 003°20'0 0.0
2014-Dec-11 08:32N 06°26' E 003°20'0 0.0
2014-Dec-11 07:32N 06°26' E 003°20'0 0.0
2014-Dec-11 06:31N 06°26' E 003°20'0 0.0
2014-Dec-11 05:31N 06°26' E 003°20'0 0.0
2014-Dec-11 01:08N 06°26' E 003°20'0 0.0
2014-Dec-11 00:32N 06°26' E 003°20'0 0.0
2014-Dec-10 23:31N 06°26' E 003°20'0 0.0
2014-Dec-10 22:31N 06°26' E 003°20'0 0.0
2014-Dec-10 21:31N 06°26' E 003°20'0 0.0
2014-Dec-10 19:15N 06°26' E 003°20'0 0.0
2014-Dec-10 18:32N 06°26' E 003°20'4 0.5
2014-Dec-10 09:14N 06°25' E 003°24'4 6.4
2014-Dec-10 08:33N 06°21' E 003°25'3 0.9
2014-Dec-10 05:30N 06°18' E 003°25'9 9.6
2014-Dec-10 04:33N 06°11' E 003°19'  
Track history (hours):
 
Tides and Currents Weather Stations Pressure Air Temp Water Temp Dewpoint Dewpoint Depression Visibility Wind Speed Wind Dir Waves Ship Positions

Repubbli Del Brasile

Last reported at 2014-Dec-19 00:11 UTC. Time now 2014-Dec-22 18:29 UTC.
Position N 09°51' W 016°37'.

Length 209 m; draft 7.9 m.

Type: Cargo ship. MMSI: 247310000.

Date/timePositionNaut miles runAvg speedWind from/ knotsBaromVisibWave heightAir tempDewpointWater temp
2014-Dec-19 00:11N 09°51' W 016°37'2814.6
2014-Dec-18 22:16N 09°32' W 016°16'1414.9
2014-Dec-18 21:20N 09°22' W 016°06'1214.9
2014-Dec-18 20:33N 09°15' W 015°57'3014.9
2014-Dec-18 18:31N 08°54' W 015°34'4615.4
2014-Dec-18 15:33N 08°23' W 015°01'1715.3
2014-Dec-18 14:27N 08°12' W 014°48'1415.2
2014-Dec-18 13:33N 08°02' W 014°38'1515.1
2014-Dec-18 12:33N 07°52' W 014°27'  
2014-Dec-11 18:33N 06°12' E 003°22'1111.6
2014-Dec-11 17:34N 06°24' E 003°24'4 4.4
2014-Dec-11 16:33N 06°26' E 003°20'1 0.3
2014-Dec-11 14:32N 06°26' E 003°20'0 0.0
2014-Dec-11 13:31N 06°26' E 003°20'0 0.0
2014-Dec-11 12:31N 06°26' E 003°20'0 0.0
2014-Dec-11 11:31N 06°26' E 003°20'0 0.0
2014-Dec-11 09:27N 06°26' E 003°20'0 0.0
2014-Dec-11 08:32N 06°26' E 003°20'0 0.0
2014-Dec-11 07:32N 06°26' E 003°20'0 0.0
2014-Dec-11 06:31N 06°26' E 003°20'0 0.0
2014-Dec-11 05:31N 06°26' E 003°20'0 0.0
2014-Dec-11 01:08N 06°26' E 003°20'0 0.0
2014-Dec-11 00:32N 06°26' E 003°20'0 0.0
2014-Dec-10 23:31N 06°26' E 003°20'0 0.0
2014-Dec-10 22:31N 06°26' E 003°20'0 0.0
2014-Dec-10 21:31N 06°26' E 003°20'0 0.0
2014-Dec-10 19:15N 06°26' E 003°20'0 0.0
2014-Dec-10 18:32N 06°26' E 003°20'4 0.5
2014-Dec-10 09:14N 06°25' E 003°24'4 6.4
2014-Dec-10 08:33N 06°21' E 003°25'3 0.9
2014-Dec-10 05:30N 06°18' E 003°25'9 9.6
2014-Dec-10 04:33N 06°11' E 003°19'  

Dump ship's entire track history